createdAt,value
2022-12-25T00:01:10.297Z,17.90
2022-12-25T00:03:38.166Z,17.25
2022-12-25T00:06:05.971Z,17.42
2022-12-25T00:08:33.622Z,17.10
2022-12-25T00:11:10.892Z,18.80
2022-12-25T00:13:39.946Z,16.70
2022-12-25T00:16:12.959Z,17.33
2022-12-25T00:18:39.689Z,18.13
2022-12-25T00:21:07.657Z,17.80
2022-12-25T00:23:35.515Z,17.77
2022-12-25T00:26:07.727Z,17.30
2022-12-25T00:28:35.476Z,16.98
2022-12-25T00:31:11.080Z,17.05
2022-12-25T00:36:07.086Z,17.92
2022-12-25T00:38:36.237Z,18.38
2022-12-25T00:41:11.279Z,19.02
2022-12-25T00:43:38.608Z,18.52
2022-12-25T00:46:06.639Z,19.20
2022-12-25T00:48:34.475Z,19.23
2022-12-25T00:51:04.482Z,19.08
2022-12-25T00:53:31.934Z,20.27
2022-12-25T00:56:01.259Z,20.05
2022-12-25T00:58:30.903Z,19.88
2022-12-25T01:00:57.767Z,19.23
2022-12-25T01:03:25.419Z,18.95
2022-12-25T01:06:05.073Z,20.20
2022-12-25T01:08:34.462Z,19.55
2022-12-25T01:11:04.046Z,20.67
2022-12-25T01:13:33.037Z,19.60
2022-12-25T01:16:04.865Z,20.02
2022-12-25T01:18:31.545Z,20.60
2022-12-25T01:20:58.240Z,20.38
2022-12-25T01:23:24.907Z,19.73
2022-12-25T01:25:51.605Z,20.48
2022-12-25T01:28:18.303Z,20.05
2022-12-25T01:30:49.300Z,21.50
2022-12-25T01:33:15.998Z,20.10
2022-12-25T01:35:42.707Z,22.45
2022-12-25T01:38:09.408Z,21.65
2022-12-25T01:40:36.104Z,21.23
2022-12-25T01:43:02.806Z,22.35
2022-12-25T01:45:35.390Z,20.77
2022-12-25T01:48:09.496Z,22.98
2022-12-25T01:50:38.797Z,22.02
2022-12-25T01:53:06.696Z,23.13
2022-12-25T01:55:34.838Z,23.75
2022-12-25T01:58:01.903Z,24.13
2022-12-25T02:00:28.619Z,24.05
2022-12-25T02:02:56.330Z,25.20
2022-12-25T02:05:34.284Z,24.23
2022-12-25T02:08:11.237Z,23.98
2022-12-25T02:10:37.977Z,25.83
2022-12-25T02:13:05.991Z,25.55
2022-12-25T02:16:08.552Z,24.67
2022-12-25T02:18:44.564Z,25.20
2022-12-25T02:21:39.092Z,25.77
2022-12-25T02:24:11.487Z,23.85
2022-12-25T02:27:02.945Z,27.15
2022-12-25T02:29:56.520Z,25.23
2022-12-25T02:32:51.652Z,24.42
2022-12-25T02:35:26.391Z,25.17
2022-12-25T02:37:57.187Z,26.15
2022-12-25T02:40:38.456Z,26.02
2022-12-25T02:43:09.824Z,25.58
2022-12-25T02:45:48.578Z,26.35
2022-12-25T02:48:17.057Z,25.77
2022-12-25T02:50:43.892Z,25.23
2022-12-25T02:53:12.216Z,26.10
2022-12-25T02:55:41.695Z,24.92
2022-12-25T02:58:15.275Z,25.85
2022-12-25T03:00:46.231Z,25.60
2022-12-25T03:03:15.980Z,25.45
2022-12-25T03:05:43.897Z,23.42
2022-12-25T03:08:19.053Z,25.77
2022-12-25T03:10:50.707Z,27.35
2022-12-25T03:13:21.567Z,27.95
2022-12-25T03:15:49.608Z,26.33
2022-12-25T03:18:18.951Z,25.23
2022-12-25T03:20:45.750Z,26.98
2022-12-25T03:23:15.288Z,26.02
2022-12-25T03:25:41.979Z,25.50
2022-12-25T03:28:08.671Z,25.48
2022-12-25T03:30:49.950Z,24.88
2022-12-25T03:33:55.967Z,24.27
2022-12-25T03:36:34.556Z,24.40
2022-12-25T03:39:09.981Z,26.08
2022-12-25T03:41:51.873Z,26.67
2022-12-25T03:44:21.350Z,24.08
2022-12-25T03:46:54.222Z,23.60
2022-12-25T03:49:30.773Z,23.42
2022-12-25T03:52:01.197Z,23.50
2022-12-25T03:54:30.970Z,21.88
2022-12-25T03:56:58.416Z,23.05
2022-12-25T03:59:25.294Z,23.67
2022-12-25T04:01:52.405Z,21.48
2022-12-25T04:04:19.430Z,22.90
2022-12-25T04:06:46.119Z,22.27
2022-12-25T04:09:12.766Z,21.70
2022-12-25T04:11:39.451Z,20.90
2022-12-25T04:14:06.130Z,21.30
2022-12-25T04:16:32.912Z,22.30
2022-12-25T04:18:59.631Z,21.80
2022-12-25T04:21:26.315Z,21.50
2022-12-25T04:23:52.991Z,21.50
2022-12-25T04:26:20.355Z,22.17
2022-12-25T04:28:46.999Z,21.23
2022-12-25T04:31:13.723Z,20.90
2022-12-25T04:33:40.484Z,21.13
2022-12-25T04:36:07.604Z,21.23
2022-12-25T04:38:34.583Z,22.25
2022-12-25T04:41:02.384Z,23.27
2022-12-25T04:43:29.605Z,24.30
2022-12-25T04:45:58.440Z,23.83
2022-12-25T04:48:26.956Z,23.30
2022-12-25T04:50:53.804Z,23.35
2022-12-25T04:53:20.488Z,22.98
2022-12-25T04:55:49.843Z,23.10
2022-12-25T04:58:16.616Z,22.75
2022-12-25T05:00:43.277Z,24.27
2022-12-25T05:03:10.056Z,23.90
2022-12-25T05:05:39.644Z,22.75
2022-12-25T05:08:06.411Z,24.60
2022-12-25T05:10:33.196Z,23.55
2022-12-25T05:13:00.089Z,21.73
2022-12-25T05:15:26.747Z,22.70
2022-12-25T05:17:53.677Z,24.30
2022-12-25T05:20:20.564Z,24.70
2022-12-25T05:22:47.273Z,24.70
2022-12-25T05:25:14.115Z,25.15
2022-12-25T05:27:41.041Z,24.40
2022-12-25T05:30:08.780Z,24.38
2022-12-25T05:32:35.490Z,23.10
2022-12-25T05:35:02.275Z,23.83
2022-12-25T05:37:29.191Z,23.60
2022-12-25T05:39:56.070Z,23.85
2022-12-25T05:42:22.748Z,25.77
2022-12-25T05:44:49.596Z,25.95
2022-12-25T05:47:16.295Z,24.35
2022-12-25T05:49:43.574Z,24.02
2022-12-25T05:52:10.277Z,24.63
2022-12-25T05:54:37.021Z,25.45
2022-12-25T05:57:03.984Z,25.10
2022-12-25T05:59:32.137Z,25.77
2022-12-25T06:02:00.063Z,26.02
2022-12-25T06:04:26.827Z,26.92
2022-12-25T06:06:53.722Z,26.38
2022-12-25T06:09:20.421Z,26.35
2022-12-25T06:11:47.160Z,26.00
2022-12-25T06:14:15.357Z,26.75
2022-12-25T06:16:42.150Z,27.42
2022-12-25T06:19:08.964Z,26.83
2022-12-25T06:21:35.596Z,28.00
2022-12-25T06:24:02.679Z,28.38
2022-12-25T06:26:29.387Z,29.60
2022-12-25T06:28:56.103Z,27.90
2022-12-25T06:31:24.891Z,29.33
2022-12-25T06:33:51.741Z,28.77
2022-12-25T06:36:26.026Z,27.42
2022-12-25T06:38:53.608Z,28.00
2022-12-25T06:41:22.771Z,26.73
2022-12-25T06:43:51.191Z,26.40
2022-12-25T06:46:18.972Z,27.85
2022-12-25T06:48:46.755Z,28.00
2022-12-25T06:51:14.018Z,26.20
2022-12-25T06:53:41.018Z,24.27
2022-12-25T06:56:14.125Z,24.30
2022-12-25T06:59:01.830Z,25.90
2022-12-25T07:01:47.495Z,26.02
2022-12-25T07:04:28.270Z,27.60
2022-12-25T07:06:54.952Z,27.25
2022-12-25T07:09:21.676Z,27.30
2022-12-25T07:11:48.305Z,36.53
2022-12-25T07:14:23.866Z,28.17
2022-12-25T07:16:51.621Z,28.33
2022-12-25T07:19:18.357Z,25.95
2022-12-25T07:21:45.139Z,26.77
2022-12-25T07:24:11.861Z,24.75
2022-12-25T07:26:38.491Z,24.73
2022-12-25T07:29:05.139Z,25.10
2022-12-25T07:31:31.815Z,24.33
2022-12-25T07:33:58.510Z,27.15
2022-12-25T07:36:25.197Z,28.83
2022-12-25T07:38:51.888Z,24.40
2022-12-25T07:41:18.561Z,28.75
2022-12-25T07:43:45.281Z,26.70
2022-12-25T07:46:12.005Z,28.00
2022-12-25T07:48:38.837Z,27.23
2022-12-25T07:51:08.245Z,25.92
2022-12-25T07:53:35.965Z,25.52
2022-12-25T07:56:05.907Z,24.15
2022-12-25T07:58:33.036Z,25.98
2022-12-25T08:01:17.882Z,27.10
2022-12-25T08:03:48.637Z,26.88
2022-12-25T08:06:15.604Z,26.83
2022-12-25T08:08:42.318Z,25.88
2022-12-25T08:11:10.045Z,36.13
2022-12-25T08:13:37.230Z,28.55
2022-12-25T08:16:06.479Z,31.08
2022-12-25T08:18:33.212Z,28.35
2022-12-25T08:21:11.180Z,30.27
2022-12-25T08:23:40.984Z,30.27
2022-12-25T08:26:10.693Z,30.05
2022-12-25T08:28:37.788Z,27.77
2022-12-25T08:31:28.819Z,42.90
2022-12-25T08:33:57.814Z,31.85
2022-12-25T08:36:25.182Z,26.23
2022-12-25T08:38:55.675Z,23.23
2022-12-25T08:41:26.228Z,21.80
2022-12-25T08:43:53.293Z,22.55
2022-12-25T08:46:20.630Z,22.45
2022-12-25T08:48:49.087Z,23.88
2022-12-25T08:51:18.753Z,23.33
2022-12-25T08:53:47.150Z,23.55
2022-12-25T08:56:14.484Z,22.23
2022-12-25T08:58:41.757Z,23.02
2022-12-25T09:01:08.862Z,23.30
2022-12-25T09:03:35.587Z,23.48
2022-12-25T09:06:07.943Z,21.80
2022-12-25T09:08:35.513Z,21.50
2022-12-25T09:11:03.355Z,22.42
2022-12-25T09:13:30.495Z,22.88
2022-12-25T09:15:57.371Z,23.10
2022-12-25T09:18:24.205Z,24.70
2022-12-25T09:21:01.244Z,26.30
2022-12-25T09:23:28.385Z,27.42
2022-12-25T09:25:55.376Z,26.25
2022-12-25T09:28:22.296Z,28.65
2022-12-25T09:30:53.145Z,28.52
2022-12-25T09:33:20.867Z,28.73
2022-12-25T09:36:01.022Z,29.80
2022-12-25T09:38:28.672Z,30.25
2022-12-25T09:41:18.645Z,30.75
2022-12-25T09:43:54.546Z,29.00
2022-12-25T09:46:30.185Z,27.83
2022-12-25T09:49:40.175Z,28.10
2022-12-25T09:52:20.039Z,25.27
2022-12-25T09:55:19.643Z,23.48
2022-12-25T09:57:52.942Z,22.33
2022-12-25T10:00:25.752Z,22.08
2022-12-25T10:03:01.897Z,21.67
2022-12-25T10:06:02.133Z,20.63
2022-12-25T10:08:54.024Z,21.70
2022-12-25T10:11:45.570Z,21.52
2022-12-25T10:14:30.695Z,22.60
2022-12-25T10:17:11.834Z,23.48
2022-12-25T10:19:57.014Z,25.48
2022-12-25T10:22:33.689Z,27.08
2022-12-25T10:25:02.288Z,26.80
2022-12-25T10:27:41.683Z,26.75
2022-12-25T10:30:16.974Z,27.15
2022-12-25T10:32:45.584Z,25.13
2022-12-25T10:35:21.031Z,26.85
2022-12-25T10:38:02.415Z,25.42
2022-12-25T10:40:44.091Z,25.30
2022-12-25T10:43:37.288Z,28.88
2022-12-25T10:46:11.108Z,27.27
2022-12-25T10:48:42.115Z,27.48
2022-12-25T10:51:08.914Z,25.17
2022-12-25T10:53:41.415Z,24.48
2022-12-25T10:56:16.394Z,25.15
2022-12-25T10:58:43.280Z,25.30
2022-12-25T11:01:10.972Z,24.65
2022-12-25T11:03:46.560Z,24.67
2022-12-25T11:06:25.323Z,23.90
2022-12-25T11:08:58.259Z,23.65
2022-12-25T11:11:26.526Z,23.52
2022-12-25T11:13:59.727Z,24.42
2022-12-25T11:16:31.317Z,24.65
2022-12-25T11:19:00.015Z,21.75
2022-12-25T11:21:26.679Z,22.02
2022-12-25T11:24:05.998Z,22.38
2022-12-25T11:26:48.072Z,23.88
2022-12-25T11:29:37.013Z,22.75
2022-12-25T11:32:05.795Z,23.83
2022-12-25T11:34:44.643Z,22.20
2022-12-25T11:37:41.784Z,22.83
2022-12-25T11:40:35.333Z,21.80
2022-12-25T11:43:19.790Z,20.88
2022-12-25T11:45:55.296Z,20.85
2022-12-25T11:48:27.860Z,21.05
2022-12-25T11:50:59.205Z,20.58
2022-12-25T11:53:31.794Z,20.08
2022-12-25T11:56:02.999Z,20.88
2022-12-25T11:58:49.731Z,19.73
2022-12-25T12:01:33.595Z,19.27
2022-12-25T12:04:03.148Z,18.27
2022-12-25T12:06:37.555Z,18.65
2022-12-25T12:09:41.930Z,19.48
2022-12-25T12:12:29.568Z,18.58
2022-12-25T12:15:08.489Z,18.50
2022-12-25T12:17:35.423Z,18.63
2022-12-25T12:20:24.015Z,17.85
2022-12-25T12:22:51.046Z,16.85
2022-12-25T12:25:18.776Z,16.95
2022-12-25T12:27:45.723Z,16.35
2022-12-25T12:30:29.027Z,15.23
2022-12-25T12:33:02.206Z,15.73
2022-12-25T12:35:32.497Z,13.95
2022-12-25T12:38:18.917Z,14.15
2022-12-25T12:41:02.736Z,14.13
2022-12-25T12:43:41.945Z,14.55
2022-12-25T12:46:25.942Z,14.85
2022-12-25T12:49:23.603Z,14.57
2022-12-25T12:51:51.091Z,13.95
2022-12-25T12:54:24.640Z,13.98
2022-12-25T12:57:27.743Z,14.27
2022-12-25T12:59:56.408Z,13.30
2022-12-25T13:03:00.540Z,14.45
2022-12-25T13:05:45.860Z,13.82
2022-12-25T13:08:28.187Z,12.82
2022-12-25T13:11:20.121Z,12.30
2022-12-25T13:13:49.112Z,12.98
2022-12-25T13:16:25.049Z,12.68
2022-12-25T13:18:53.699Z,12.40
2022-12-25T13:21:28.820Z,12.90
2022-12-25T13:24:07.332Z,12.95
2022-12-25T13:26:34.012Z,14.40
2022-12-25T13:29:01.998Z,13.40
2022-12-25T13:31:31.129Z,13.50
2022-12-25T13:34:09.579Z,13.93
2022-12-25T13:36:39.229Z,13.25
2022-12-25T13:39:13.852Z,13.48
2022-12-25T13:41:49.883Z,15.25
2022-12-25T13:44:21.251Z,15.95
2022-12-25T13:46:48.111Z,15.65
2022-12-25T13:49:20.905Z,15.30
2022-12-25T13:51:48.583Z,15.20
2022-12-25T13:54:17.109Z,15.00
2022-12-25T13:56:52.930Z,15.77
2022-12-25T13:59:23.689Z,16.20
2022-12-25T14:01:52.052Z,16.60
2022-12-25T14:04:24.149Z,17.83
2022-12-25T14:06:51.747Z,18.60
2022-12-25T14:09:19.086Z,18.13
2022-12-25T14:11:50.360Z,18.35
2022-12-25T14:14:24.340Z,19.17
2022-12-25T14:16:53.232Z,18.10
2022-12-25T14:19:31.688Z,19.95
2022-12-25T14:22:04.084Z,19.50
2022-12-25T14:24:33.810Z,19.33
2022-12-25T14:27:03.058Z,18.15
2022-12-25T14:29:36.747Z,17.08
2022-12-25T14:32:09.862Z,18.13
2022-12-25T14:34:37.268Z,18.02
2022-12-25T14:37:05.021Z,18.88
2022-12-25T14:39:36.225Z,19.02
2022-12-25T14:42:26.638Z,18.00
2022-12-25T14:45:05.952Z,19.58
2022-12-25T14:47:39.661Z,18.35
2022-12-25T14:50:34.889Z,18.77
2022-12-25T14:53:02.102Z,18.83
2022-12-25T14:55:30.235Z,19.27
2022-12-25T14:58:02.815Z,18.08
2022-12-25T15:00:37.645Z,17.30
2022-12-25T15:03:18.488Z,17.97
2022-12-25T15:05:45.365Z,18.10
2022-12-25T15:08:12.323Z,17.95
2022-12-25T15:11:01.876Z,16.90
2022-12-25T15:13:31.112Z,17.75
2022-12-25T15:16:06.498Z,16.73
2022-12-25T15:18:45.110Z,16.60
2022-12-25T15:21:24.898Z,15.98
2022-12-25T15:23:53.955Z,15.98
2022-12-25T15:26:20.833Z,16.58
2022-12-25T15:28:47.598Z,16.45
2022-12-25T15:31:26.075Z,15.82
2022-12-25T15:33:59.744Z,16.42
2022-12-25T15:36:27.445Z,16.25
2022-12-25T15:38:54.743Z,16.13
2022-12-25T15:41:34.824Z,15.93
2022-12-25T15:44:01.890Z,16.50
2022-12-25T15:46:28.614Z,16.95
2022-12-25T15:48:55.394Z,16.08
2022-12-25T15:51:22.069Z,15.50
2022-12-25T15:53:51.536Z,15.50
2022-12-25T15:56:21.586Z,16.58
2022-12-25T15:58:48.685Z,15.80
2022-12-25T16:01:16.286Z,17.05
2022-12-25T16:03:44.046Z,16.35
2022-12-25T16:06:16.296Z,16.77
2022-12-25T16:08:43.393Z,17.35
2022-12-25T16:11:10.664Z,17.25
2022-12-25T16:13:37.796Z,16.70
2022-12-25T16:16:05.250Z,16.33
2022-12-25T16:18:32.132Z,16.15
2022-12-25T16:20:59.598Z,17.08
2022-12-25T16:23:26.388Z,16.52
2022-12-25T16:25:53.212Z,17.73
2022-12-25T16:28:19.902Z,16.52
2022-12-25T16:30:46.769Z,17.75
2022-12-25T16:33:13.565Z,18.55
2022-12-25T16:35:40.439Z,18.60
2022-12-25T16:38:07.156Z,17.80
2022-12-25T16:40:34.377Z,17.73
2022-12-25T16:43:01.116Z,17.98
2022-12-25T16:45:27.857Z,17.25
2022-12-25T16:47:56.400Z,16.95
2022-12-25T16:50:23.347Z,17.95
2022-12-25T16:52:50.050Z,17.13
2022-12-25T16:55:16.784Z,18.30
2022-12-25T16:57:43.457Z,18.55
2022-12-25T17:00:10.806Z,19.02
2022-12-25T17:02:37.731Z,18.30
2022-12-25T17:05:04.749Z,18.40
2022-12-25T17:07:31.422Z,19.50
2022-12-25T17:09:58.219Z,19.60
2022-12-25T17:12:24.956Z,19.17
2022-12-25T17:14:52.388Z,19.00
2022-12-25T17:17:19.066Z,18.92
2022-12-25T17:19:45.799Z,19.83
2022-12-25T17:22:12.494Z,19.52
2022-12-25T17:24:39.628Z,19.83
2022-12-25T17:27:06.542Z,17.70
2022-12-25T17:29:33.337Z,18.55
2022-12-25T17:32:00.170Z,20.05
2022-12-25T17:34:27.154Z,17.25
2022-12-25T17:36:54.013Z,19.10
2022-12-25T17:39:20.839Z,19.42
2022-12-25T17:41:49.798Z,20.48
2022-12-25T17:44:17.454Z,19.35
2022-12-25T17:46:44.605Z,19.17
2022-12-25T17:49:15.460Z,19.25
2022-12-25T17:51:42.600Z,20.23
2022-12-25T17:54:09.959Z,22.25
2022-12-25T17:56:36.974Z,22.40
2022-12-25T17:59:05.444Z,21.02
2022-12-25T18:01:32.762Z,24.58
2022-12-25T18:04:02.571Z,22.60
2022-12-25T18:06:29.519Z,22.33
2022-12-25T18:08:58.052Z,21.42
2022-12-25T18:11:28.005Z,22.23
2022-12-25T18:13:55.041Z,22.05
2022-12-25T18:16:24.015Z,21.85
2022-12-25T18:18:52.872Z,21.60
2022-12-25T18:21:21.866Z,22.90
2022-12-25T18:23:49.467Z,24.92
2022-12-25T18:26:16.433Z,21.25
2022-12-25T18:28:43.284Z,21.95
2022-12-25T18:31:12.836Z,21.92
2022-12-25T18:33:39.529Z,22.70
2022-12-25T18:36:06.877Z,26.08
2022-12-25T18:38:33.747Z,22.80
2022-12-25T18:41:03.678Z,25.85
2022-12-25T18:43:53.219Z,26.88
2022-12-25T18:46:17.686Z,26.02
2022-12-25T18:48:44.947Z,27.27
2022-12-25T18:51:13.182Z,25.67
2022-12-25T18:53:40.037Z,26.13
2022-12-25T18:56:10.832Z,26.25
2022-12-25T18:58:37.793Z,27.40
2022-12-25T19:01:19.635Z,25.25
2022-12-25T19:03:46.889Z,26.80
2022-12-25T19:06:29.058Z,25.10
2022-12-25T19:08:56.121Z,27.33
2022-12-25T19:11:23.026Z,27.48
2022-12-25T19:13:49.800Z,26.15
2022-12-25T19:16:17.295Z,25.85
2022-12-25T19:18:44.215Z,24.48
2022-12-25T19:21:11.096Z,24.27
2022-12-25T19:23:38.237Z,27.60
2022-12-25T19:26:06.883Z,26.60
2022-12-25T19:28:34.241Z,24.63
2022-12-25T19:31:01.719Z,24.85
2022-12-25T19:33:31.223Z,25.85
2022-12-25T19:36:02.402Z,27.33
2022-12-25T19:38:29.198Z,26.35
2022-12-25T19:40:56.171Z,25.45
2022-12-25T19:43:22.849Z,28.67
2022-12-25T19:45:49.609Z,26.60
2022-12-25T19:48:16.403Z,26.20
2022-12-25T19:50:43.212Z,27.65
2022-12-25T19:53:09.875Z,28.35
2022-12-25T19:55:36.590Z,25.00
2022-12-25T19:58:03.713Z,29.38
2022-12-25T20:00:30.366Z,28.73
2022-12-25T20:02:57.285Z,26.90
2022-12-25T20:05:24.120Z,28.45
2022-12-25T20:07:50.799Z,26.92
2022-12-25T20:10:17.429Z,27.27
2022-12-25T20:12:44.113Z,27.83
2022-12-25T20:15:11.147Z,27.60
2022-12-25T20:17:37.843Z,26.50
2022-12-25T20:20:05.269Z,29.92
2022-12-25T20:22:31.949Z,32.25
2022-12-25T20:24:58.625Z,33.25
2022-12-25T20:27:25.641Z,32.40
2022-12-25T20:29:52.360Z,32.35
2022-12-25T20:32:19.117Z,32.10
2022-12-25T20:34:46.215Z,34.25
2022-12-25T20:37:13.102Z,34.92
2022-12-25T20:39:39.784Z,33.15
2022-12-25T20:42:06.508Z,32.22
2022-12-25T20:44:33.262Z,30.30
2022-12-25T20:46:59.944Z,31.65
2022-12-25T20:49:27.386Z,27.98
2022-12-25T20:51:55.001Z,28.90
2022-12-25T20:54:24.034Z,27.55
2022-12-25T20:56:50.848Z,29.35
2022-12-25T20:59:17.528Z,27.85
2022-12-25T21:01:44.556Z,28.48
2022-12-25T21:04:16.209Z,29.00
2022-12-25T21:06:43.478Z,27.02
2022-12-25T21:09:10.379Z,27.65
2022-12-25T21:11:37.154Z,27.67
2022-12-25T21:14:03.825Z,27.48
2022-12-25T21:16:30.542Z,27.92
2022-12-25T21:18:57.709Z,28.25
2022-12-25T21:21:24.855Z,26.48
2022-12-25T21:23:51.524Z,28.00
2022-12-25T21:26:23.966Z,28.73
2022-12-25T21:28:53.172Z,29.65
2022-12-25T21:31:20.864Z,28.48
2022-12-25T21:33:47.804Z,28.48
2022-12-25T21:36:14.530Z,29.92
2022-12-25T21:38:41.221Z,27.55
2022-12-25T21:41:10.598Z,26.55
2022-12-25T21:43:39.462Z,26.58
2022-12-25T21:46:11.983Z,25.75
2022-12-25T21:48:39.807Z,28.40
2022-12-25T21:51:10.945Z,28.25
2022-12-25T21:53:37.637Z,28.92
2022-12-25T21:56:04.598Z,28.95
2022-12-25T21:58:31.645Z,29.00
2022-12-25T22:01:03.060Z,26.77
2022-12-25T22:03:29.927Z,26.67
2022-12-25T22:05:57.574Z,27.50
2022-12-25T22:08:28.533Z,26.20
2022-12-25T22:10:55.318Z,27.48
2022-12-25T22:13:22.443Z,27.15
2022-12-25T22:15:49.296Z,26.95
2022-12-25T22:18:16.200Z,26.05
2022-12-25T22:20:43.136Z,24.80
2022-12-25T22:23:09.828Z,26.83
2022-12-25T22:25:36.555Z,25.65
2022-12-25T22:28:03.291Z,24.70
2022-12-25T22:30:30.124Z,24.98
2022-12-25T22:32:57.375Z,23.92
2022-12-25T22:35:24.650Z,24.90
2022-12-25T22:37:51.482Z,23.38
2022-12-25T22:40:19.558Z,23.17
2022-12-25T22:42:46.952Z,25.02
2022-12-25T22:45:14.192Z,21.83
2022-12-25T22:47:41.341Z,22.70
2022-12-25T22:50:09.043Z,22.48
2022-12-25T22:52:37.001Z,22.30
2022-12-25T22:55:05.333Z,22.38
2022-12-25T22:57:32.001Z,20.92
2022-12-25T22:59:58.889Z,20.08
2022-12-25T23:02:26.061Z,19.52
2022-12-25T23:04:52.954Z,20.50
2022-12-25T23:07:19.718Z,20.17
2022-12-25T23:09:46.485Z,19.40
2022-12-25T23:12:13.197Z,18.70
2022-12-25T23:14:40.277Z,18.63
2022-12-25T23:17:12.686Z,17.15
2022-12-25T23:19:39.320Z,16.75
2022-12-25T23:22:05.986Z,15.88
2022-12-25T23:24:32.663Z,15.30
2022-12-25T23:26:59.334Z,15.30
2022-12-25T23:29:26.139Z,15.55
2022-12-25T23:31:52.988Z,14.20
2022-12-25T23:34:20.844Z,15.35
2022-12-25T23:36:48.444Z,14.35
2022-12-25T23:39:15.212Z,15.05
2022-12-25T23:41:43.945Z,13.75
2022-12-25T23:44:12.533Z,13.98
2022-12-25T23:46:40.965Z,14.77
2022-12-25T23:49:08.002Z,13.55
2022-12-25T23:51:36.205Z,14.93
2022-12-25T23:54:06.875Z,13.57
2022-12-25T23:56:33.934Z,13.45
2022-12-25T23:59:00.736Z,13.27
